Time;durP1;ratioP1;P1;durP2;ratioP2;P2;SDS_P1;SDS_P2;PMS_P1;PMS_P2;Temp;Humidity;BMP_temperature;BMP_pressure;BME280_temperature;BME280_humidity;BME280_pressure;Samples;Min_cycle;Max_cycle;Signal;HPM_P1;HPM_P2
2021/04/25 00:01:56;;;;;;;12.90;3.35;;;;;;;4.12;76.31;102400.72;6223307;28;20077;-75
2021/04/25 00:04:57;;;;;;;11.02;3.90;;;;;;;4.05;77.48;102402.47;6222950;28;20129;-75
2021/04/25 00:07:58;;;;;;;9.02;2.80;;;;;;;4.16;77.37;102403.34;6222701;28;20099;-75
2021/04/25 00:11:00;;;;;;;11.52;3.33;;;;;;;4.08;77.96;102403.31;6222298;28;20050;-75
2021/04/25 00:14:00;;;;;;;11.75;3.50;;;;;;;4.02;77.72;102392.94;6222242;28;20053;-75
2021/04/25 00:17:02;;;;;;;18.40;4.07;;;;;;;3.96;77.78;102387.75;6222299;28;20053;-74
2021/04/25 00:20:04;;;;;;;10.90;3.97;;;;;;;3.88;78.67;102391.19;6222447;28;20053;-75
2021/04/25 00:23:06;;;;;;;9.20;3.20;;;;;;;3.89;78.33;102391.19;6222004;28;20456;-75
2021/04/25 00:26:06;;;;;;;8.98;3.78;;;;;;;3.88;78.11;102386.00;6221737;28;20057;-75
2021/04/25 00:29:07;;;;;;;18.98;4.65;;;;;;;3.72;78.77;102387.69;6216761;28;20050;-75
2021/04/25 00:32:08;;;;;;;9.30;3.70;;;;;;;3.91;78.86;102388.63;6211250;28;20128;-74
2021/04/25 00:35:10;;;;;;;13.30;3.63;;;;;;;3.78;78.89;102385.13;6209453;28;20137;-75
2021/04/25 00:38:12;;;;;;;13.70;4.53;;;;;;;3.72;79.47;102380.75;6208821;28;20053;-76
2021/04/25 00:41:13;;;;;;;10.32;3.75;;;;;;;3.80;78.98;102385.97;6216819;28;20070;-75
2021/04/25 00:44:14;;;;;;;18.05;4.80;;;;;;;3.73;78.11;102387.72;6221674;28;20164;-74
2021/04/25 00:47:15;;;;;;;16.05;4.88;;;;;;;3.66;78.87;102379.91;6222226;28;20088;-75
2021/04/25 00:50:17;;;;;;;18.75;4.45;;;;;;;3.66;79.14;102383.38;6222342;28;20046;-75
2021/04/25 00:53:20;;;;;;;15.48;4.13;;;;;;;3.67;79.12;102386.81;6218823;28;20635;-75
2021/04/25 00:56:22;;;;;;;16.30;4.40;;;;;;;3.74;78.63;102383.38;6226157;28;20128;-75
2021/04/25 00:59:23;;;;;;;11.90;4.00;;;;;;;3.54;80.19;102385.94;6227769;28;20081;-75
2021/04/25 01:02:25;;;;;;;16.92;4.40;;;;;;;3.63;78.91;102378.16;6227329;28;20120;-75
2021/04/25 01:05:27;;;;;;;16.50;3.70;;;;;;;3.64;79.70;102379.03;6227504;28;20104;-75
2021/04/25 01:08:28;;;;;;;17.08;4.60;;;;;;;3.60;80.69;102375.56;6226692;28;20054;-75
2021/04/25 01:11:29;;;;;;;14.98;4.57;;;;;;;3.68;80.06;102375.56;6226734;28;20073;-75
2021/04/25 01:14:30;;;;;;;12.63;4.28;;;;;;;3.70;80.24;102376.44;6226127;28;20054;-75
2021/04/25 01:17:32;;;;;;;13.25;4.15;;;;;;;3.66;79.00;102377.31;6226617;28;20049;-75
2021/04/25 01:20:33;;;;;;;17.70;4.13;;;;;;;3.70;78.60;102376.44;6226402;28;20050;-75
2021/04/25 01:23:34;;;;;;;11.73;4.90;;;;;;;3.55;79.63;102383.34;6252687;23;20119;-76
2021/04/25 01:26:35;;;;;;;15.70;3.78;;;;;;;3.45;79.77;102376.41;6231750;28;20056;-76
2021/04/25 01:29:36;;;;;;;14.68;4.57;;;;;;;3.47;79.25;102369.47;6225530;28;20054;-76
2021/04/25 01:32:40;;;;;;;10.20;4.18;;;;;;;3.52;79.63;102378.13;6221669;28;20053;-76
2021/04/25 01:35:41;;;;;;;16.98;4.60;;;;;;;3.41;79.53;102368.59;6218576;28;20053;-75
2021/04/25 01:38:43;;;;;;;14.05;3.72;;;;;;;3.42;80.06;102376.38;6225250;28;20490;-76
2021/04/25 01:41:44;;;;;;;8.80;3.92;;;;;;;3.48;80.06;102370.34;6225013;28;20054;-75
2021/04/25 01:44:45;;;;;;;12.18;4.03;;;;;;;3.58;79.08;102373.81;6224500;28;20068;-76
2021/04/25 01:47:48;;;;;;;19.42;5.03;;;;;;;3.58;77.36;102379.88;6225047;28;20058;-76
2021/04/25 01:50:49;;;;;;;9.00;3.63;;;;;;;3.43;80.03;102372.91;6225006;28;20057;-76
2021/04/25 01:53:51;;;;;;;10.55;3.60;;;;;;;3.40;79.50;102385.03;6224500;28;20054;-76
2021/04/25 01:56:51;;;;;;;10.32;3.65;;;;;;;3.41;80.73;102381.59;6224731;28;20461;-77
2021/04/25 01:59:52;;;;;;;10.52;3.92;;;;;;;3.52;79.09;102385.94;6224504;28;20136;-76
2021/04/25 02:02:55;;;;;;;14.25;4.47;;;;;;;3.59;79.74;102381.63;6223998;28;20045;-77
2021/04/25 02:05:55;;;;;;;15.63;3.42;;;;;;;3.66;78.59;102374.69;6224355;28;20092;-76
2021/04/25 02:08:57;;;;;;;10.45;3.97;;;;;;;3.72;78.13;102380.75;6224440;28;20045;-76
2021/04/25 02:11:58;;;;;;;14.25;3.60;;;;;;;3.68;77.84;102380.75;6224513;28;20050;-77
2021/04/25 02:15:00;;;;;;;17.10;3.92;;;;;;;3.76;78.40;102379.03;6224023;28;20391;-76
2021/04/25 02:18:02;;;;;;;18.48;4.13;;;;;;;3.72;77.62;102380.75;6224840;28;20045;-76
2021/04/25 02:21:02;;;;;;;18.58;4.05;;;;;;;3.64;78.20;102381.63;6224174;28;20056;-76
2021/04/25 02:24:05;;;;;;;15.40;3.97;;;;;;;3.79;78.77;102389.44;6223901;28;20050;-76
2021/04/25 02:27:06;;;;;;;13.65;3.88;;;;;;;3.88;79.12;102380.78;6224102;28;20482;-76
2021/04/25 02:30:10;;;;;;;17.90;3.83;;;;;;;3.89;77.84;102379.91;6224327;28;20054;-76
2021/04/25 02:33:11;;;;;;;13.90;4.43;;;;;;;3.81;77.06;102382.50;6223628;28;20053;-76
2021/04/25 02:36:12;;;;;;;15.13;4.38;;;;;;;4.04;76.03;102378.22;6224208;28;20057;-76
2021/04/25 02:39:13;;;;;;;17.80;3.80;;;;;;;3.88;77.69;102373.84;6223854;28;20442;-76
2021/04/25 02:42:14;;;;;;;12.75;4.13;;;;;;;3.81;77.04;102372.09;6223472;28;20057;-75
2021/04/25 02:45:17;;;;;;;15.40;4.43;;;;;;;3.82;78.82;102373.88;6223377;28;20045;-76
2021/04/25 02:48:18;;;;;;;9.93;4.40;;;;;;;3.96;78.67;102373.88;6223761;28;20053;-76
2021/04/25 02:51:19;;;;;;;17.65;4.55;;;;;;;3.93;76.83;102366.91;6223433;28;20050;-76
2021/04/25 02:54:21;;;;;;;8.70;3.72;;;;;;;3.92;77.88;102366.94;6223354;28;20414;-76
2021/04/25 02:57:22;;;;;;;17.25;3.95;;;;;;;4.09;76.17;102367.81;6223314;28;20054;-75
2021/04/25 03:00:25;;;;;;;12.20;3.92;;;;;;;4.02;75.88;102371.25;6223637;28;20063;-75
2021/04/25 03:03:26;;;;;;;12.05;4.57;;;;;;;4.01;75.88;102372.13;6222880;28;20050;-75
2021/04/25 03:06:27;;;;;;;14.88;3.83;;;;;;;3.94;76.58;102368.66;6223445;28;20089;-76
2021/04/25 03:09:29;;;;;;;15.98;4.55;;;;;;;3.98;75.65;102370.38;6223275;28;20045;-75
2021/04/25 03:12:30;;;;;;;11.73;3.67;;;;;;;3.94;76.75;102366.03;6223131;28;20054;-76
2021/04/25 03:15:31;;;;;;;14.32;3.88;;;;;;;4.00;76.66;102380.81;6222116;28;20069;-75
2021/04/25 03:18:32;;;;;;;10.95;3.72;;;;;;;4.08;74.76;102371.25;6222919;28;20057;-76
2021/04/25 03:21:32;;;;;;;13.80;3.83;;;;;;;4.01;76.14;102378.19;6222974;28;20061;-75
2021/04/25 03:24:34;;;;;;;11.38;3.50;;;;;;;4.08;75.15;102377.31;6222355;28;20414;-76
2021/04/25 03:27:35;;;;;;;16.50;3.53;;;;;;;4.16;74.71;102372.13;6222666;28;20097;-76
2021/04/25 03:30:36;;;;;;;9.98;3.00;;;;;;;4.28;74.76;102373.84;6222813;28;20052;-76
2021/04/25 03:33:37;;;;;;;13.73;3.35;;;;;;;4.29;74.47;102368.63;6222267;28;20046;-76
2021/04/25 03:36:38;;;;;;;9.23;3.63;;;;;;;4.50;72.30;102370.34;6222282;28;20076;-76
2021/04/25 03:39:40;;;;;;;16.98;3.17;;;;;;;4.21;72.97;102372.97;6222617;28;20137;-76
2021/04/25 03:42:41;;;;;;;12.07;3.00;;;;;;;4.18;73.45;102365.19;6222177;28;20046;-76
2021/04/25 03:45:42;;;;;;;10.65;3.03;;;;;;;4.40;72.16;102365.16;6222451;28;20495;-75
2021/04/25 03:48:43;;;;;;;9.68;3.13;;;;;;;4.23;72.87;102362.59;6222411;28;20103;-76
2021/04/25 03:51:44;;;;;;;9.02;2.70;;;;;;;4.29;72.96;102349.56;6222661;28;20049;-75
2021/04/25 03:54:45;;;;;;;16.20;3.20;;;;;;;4.35;72.65;102361.69;6222318;28;20422;-76
2021/04/25 03:57:47;;;;;;;11.02;2.35;;;;;;;4.24;73.04;102359.97;6222423;28;20050;-75
2021/04/25 04:00:48;;;;;;;11.00;2.92;;;;;;;4.37;74.46;102358.22;6222340;28;20049;-76
2021/04/25 04:03:51;;;;;;;20.83;3.30;;;;;;;4.36;72.85;102363.41;6221815;28;20512;-75
2021/04/25 04:06:52;;;;;;;8.82;2.47;;;;;;;4.37;73.20;102360.81;6222358;28;20060;-76
2021/04/25 04:09:53;;;;;;;15.07;3.08;;;;;;;4.50;71.96;102356.47;6222003;28;20049;-76
2021/04/25 04:12:54;;;;;;;13.18;2.38;;;;;;;4.41;72.36;102352.16;6222011;28;20251;-76
2021/04/25 04:15:55;;;;;;;8.95;2.05;;;;;;;4.77;69.13;102348.56;6222044;28;20088;-76
2021/04/25 04:18:56;;;;;;;17.00;2.35;;;;;;;4.60;69.36;102346.91;6222173;28;20414;-75
2021/04/25 04:21:57;;;;;;;15.27;2.25;;;;;;;4.49;70.13;102345.16;6222089;28;20140;-76
2021/04/25 04:24:59;;;;;;;7.53;2.25;;;;;;;4.42;71.60;102348.66;6221484;28;20053;-76
2021/04/25 04:28:00;;;;;;;13.13;2.35;;;;;;;4.52;70.38;102350.38;6224957;28;20057;-76
2021/04/25 04:31:00;;;;;;;5.88;1.77;;;;;;;4.59;70.48;102346.03;6226963;28;20137;-76
2021/04/25 04:34:01;;;;;;;10.82;3.17;;;;;;;4.74;69.62;102347.72;6226544;28;20042;-76
2021/04/25 04:37:03;;;;;;;11.20;2.13;;;;;;;4.58;70.53;102354.69;6226343;28;20060;-75
2021/04/25 04:40:06;;;;;;;11.48;2.33;;;;;;;4.56;69.99;102359.91;6226597;28;20046;-76
2021/04/25 04:43:07;;;;;;;9.45;2.30;;;;;;;4.67;70.31;102356.41;6226119;28;20050;-76
2021/04/25 04:46:07;;;;;;;8.90;2.13;;;;;;;4.57;71.13;102361.63;6226423;28;20109;-76
2021/04/25 04:49:08;;;;;;;9.77;2.40;;;;;;;4.72;68.86;102357.25;6226629;28;20049;-75
2021/04/25 04:52:09;;;;;;;15.70;2.40;;;;;;;4.63;70.53;102359.88;6226296;28;20136;-76
2021/04/25 04:55:12;;;;;;;9.07;2.38;;;;;;;4.68;70.59;102363.34;6225860;28;20046;-75
2021/04/25 04:58:13;;;;;;;13.30;2.75;;;;;;;4.73;71.17;102367.69;6226358;28;20052;-75
2021/04/25 05:01:14;;;;;;;13.15;3.00;;;;;;;4.79;71.32;102367.66;6226062;28;20532;-76
2021/04/25 05:04:15;;;;;;;17.52;2.45;;;;;;;4.90;69.97;102357.19;6225928;28;20049;-75
2021/04/25 05:07:16;;;;;;;13.23;2.53;;;;;;;4.96;71.40;102351.09;6226021;28;20129;-75
2021/04/25 05:10:18;;;;;;;14.23;3.20;;;;;;;4.78;71.18;102360.72;6225911;28;20062;-76
2021/04/25 05:13:19;;;;;;;8.15;2.47;;;;;;;4.87;71.20;102364.16;6225427;28;20124;-76
2021/04/25 05:16:20;;;;;;;4.18;2.28;;;;;;;4.85;71.20;102364.16;6225611;28;20054;-75
2021/04/25 05:19:21;;;;;;;13.45;3.10;;;;;;;4.67;72.46;102364.22;6225909;28;20057;-76
2021/04/25 05:22:22;;;;;;;12.20;2.85;;;;;;;4.96;72.01;102359.78;6225234;28;20061;-76
2021/04/25 05:25:24;;;;;;;11.23;3.03;;;;;;;4.89;71.30;102362.41;6225526;28;20046;-75
2021/04/25 05:28:25;;;;;;;16.58;3.95;;;;;;;4.96;71.00;102366.75;6225442;28;20107;-75
2021/04/25 05:31:26;;;;;;;8.90;2.78;;;;;;;4.99;70.80;102358.88;6225499;28;20506;-76
2021/04/25 05:34:27;;;;;;;11.75;2.92;;;;;;;4.83;72.53;102363.31;6225148;28;20042;-75
2021/04/25 05:37:28;;;;;;;8.40;3.20;;;;;;;4.88;71.91;102361.56;6225132;28;20053;-75
2021/04/25 05:40:30;;;;;;;10.63;2.80;;;;;;;4.99;71.16;102371.91;6224304;28;20510;-75
2021/04/25 05:43:30;;;;;;;9.68;3.13;;;;;;;4.87;72.39;102371.97;6224974;28;20052;-75
2021/04/25 05:46:33;;;;;;;10.82;3.97;;;;;;;4.95;72.00;102378.91;6225141;28;20439;-75
2021/04/25 05:49:34;;;;;;;15.60;3.17;;;;;;;5.05;71.61;102379.72;6225122;28;20050;-75
2021/04/25 05:52:35;;;;;;;10.07;3.50;;;;;;;5.01;71.93;102384.09;6224923;28;20189;-75
2021/04/25 05:55:36;;;;;;;14.10;4.32;;;;;;;5.11;71.78;102382.28;6218835;28;20070;-75
2021/04/25 05:58:37;;;;;;;13.40;3.47;;;;;;;5.12;72.02;102389.22;6216177;28;20054;-76
2021/04/25 06:01:38;;;;;;;10.00;3.33;;;;;;;5.40;70.61;102381.28;6224948;28;20508;-75
2021/04/25 06:04:41;;;;;;;17.70;3.33;;;;;;;5.09;71.02;102379.72;6224324;28;20379;-75
2021/04/25 06:07:42;;;;;;;11.80;3.67;;;;;;;5.33;70.63;102381.31;6224555;28;20057;-75
2021/04/25 06:10:43;;;;;;;12.88;4.20;;;;;;;5.17;71.16;102384.88;6224621;28;20053;-75
2021/04/25 06:13:44;;;;;;;13.20;2.58;;;;;;;5.51;69.91;102390.78;6224045;28;20053;-76
2021/04/25 06:16:45;;;;;;;14.13;3.55;;;;;;;5.48;69.94;102388.19;6231348;28;20402;-75
2021/04/25 06:19:46;;;;;;;17.77;2.40;;;;;;;5.49;68.81;102389.91;6235800;28;20049;-76
2021/04/25 06:22:47;;;;;;;8.25;2.13;;;;;;;5.57;67.70;102390.72;6233610;28;20088;-76
2021/04/25 06:25:49;;;;;;;13.90;1.90;;;;;;;5.41;67.23;102383.91;6235986;28;20046;-76
2021/04/25 06:28:50;;;;;;;6.82;1.83;;;;;;;5.41;66.51;102393.47;6233129;28;20053;-75
2021/04/25 06:31:51;;;;;;;10.65;2.88;;;;;;;5.31;66.05;102392.63;6227029;28;20431;-75
2021/04/25 06:34:52;;;;;;;13.35;1.67;;;;;;;5.50;64.76;102393.41;6226053;28;20041;-75
2021/04/25 06:37:53;;;;;;;10.15;2.00;;;;;;;5.46;67.01;102402.13;6247601;28;20498;-76
2021/04/25 06:40:55;;;;;;;6.57;1.52;;;;;;;5.57;63.93;102397.69;6248194;28;20107;-75
2021/04/25 06:43:57;;;;;;;9.27;2.42;;;;;;;5.65;62.58;102395.91;6248053;28;20042;-75
2021/04/25 06:46:58;;;;;;;11.90;1.50;;;;;;;5.85;61.77;102393.16;6248140;28;20136;-76
2021/04/25 06:49:59;;;;;;;10.18;1.20;;;;;;;5.90;60.76;102396.59;6248142;28;20053;-76
2021/04/25 06:53:00;;;;;;;10.68;1.75;;;;;;;5.79;61.20;102398.44;6247773;28;20611;-75
2021/04/25 06:56:02;;;;;;;14.23;1.80;;;;;;;5.78;62.21;102404.53;6248187;28;20049;-75
2021/04/25 06:59:03;;;;;;;9.02;1.55;;;;;;;5.96;60.25;102396.59;6247763;28;20055;-75
2021/04/25 07:02:04;;;;;;;10.20;1.38;;;;;;;5.98;60.97;102401.78;6247547;28;20517;-75
2021/04/25 07:05:06;;;;;;;10.05;1.67;;;;;;;6.01;60.53;102399.19;6247276;28;20064;-75
2021/04/25 07:08:07;;;;;;;8.23;1.30;;;;;;;6.10;60.32;102402.56;6247615;28;20053;-75
2021/04/25 07:11:09;;;;;;;10.73;1.73;;;;;;;6.32;58.24;102402.41;6247788;28;20056;-76
2021/04/25 07:14:10;;;;;;;8.27;1.17;;;;;;;6.28;58.91;102400.69;6247281;28;20046;-76
2021/04/25 07:17:11;;;;;;;10.73;1.63;;;;;;;6.29;59.00;102402.41;6247536;28;20532;-75
2021/04/25 07:20:13;;;;;;;6.53;1.38;;;;;;;6.39;58.35;102396.22;6247520;28;20084;-75
2021/04/25 07:23:14;;;;;;;6.68;1.80;;;;;;;6.33;60.18;102404.13;6257636;23;20042;-78
2021/04/25 07:26:16;;;;;;;7.25;1.27;;;;;;;6.47;58.49;102391.78;6231995;28;20578;-77
2021/04/25 07:29:17;;;;;;;12.77;1.48;;;;;;;6.51;57.98;102408.31;6237890;28;20413;-76
2021/04/25 07:32:18;;;;;;;8.23;1.52;;;;;;;6.42;59.93;102408.41;6240830;28;20513;-77
2021/04/25 07:35:19;;;;;;;14.68;1.88;;;;;;;6.50;61.41;102404.84;6202924;28;20045;-79
2021/04/25 07:38:20;;;;;;;4.90;1.20;;;;;;;6.68;57.66;102405.53;6204912;28;20047;-79
2021/04/25 07:41:22;;;;;;;7.50;1.05;;;;;;;6.67;58.38;102412.47;6200335;28;20057;-79
2021/04/25 07:44:23;;;;;;;18.95;1.50;;;;;;;6.90;57.15;102400.91;6198896;28;20088;-78
2021/04/25 07:47:24;;;;;;;8.50;1.15;;;;;;;6.80;58.34;102402.78;6198873;28;20117;-78
2021/04/25 07:50:26;;;;;;;26.95;2.03;;;;;;;6.89;56.74;102420.97;6222897;28;20054;-79
2021/04/25 07:53:28;;;;;;;10.30;1.67;;;;;;;7.01;56.81;102409.50;6223796;28;20054;-77
2021/04/25 07:56:29;;;;;;;9.15;1.92;;;;;;;7.09;56.33;102400.69;6221106;28;20057;-78
2021/04/25 07:59:31;;;;;;;8.35;1.10;;;;;;;7.16;55.27;102411.06;6212703;28;20046;-78
2021/04/25 08:02:32;;;;;;;7.70;1.80;;;;;;;7.18;54.84;102407.56;6212768;28;20104;-79
2021/04/25 08:05:33;;;;;;;7.07;0.98;;;;;;;7.14;55.14;102418.94;6207542;28;20470;-78
2021/04/25 08:08:34;;;;;;;6.22;1.13;;;;;;;7.09;54.50;102421.63;6223844;28;20521;-78
2021/04/25 08:11:35;;;;;;;10.20;1.42;;;;;;;6.93;55.09;102429.63;6211418;28;20054;-77
2021/04/25 08:14:37;;;;;;;7.82;1.55;;;;;;;6.84;56.24;102426.25;6214062;28;20061;-78
2021/04/25 08:17:37;;;;;;;11.10;1.30;;;;;;;6.90;55.45;102427.03;6200343;28;20053;-78
2021/04/25 08:20:38;;;;;;;5.50;2.17;;;;;;;6.96;56.38;102414.78;6200225;28;20054;-80
2021/04/25 08:23:41;;;;;;;11.75;1.45;;;;;;;7.05;55.86;102412.06;6199545;28;20047;-79
2021/04/25 08:26:43;;;;;;;3.67;1.50;;;;;;;7.22;55.18;102421.44;6211222;28;20137;-78
2021/04/25 08:29:43;;;;;;;9.25;1.55;;;;;;;7.19;55.23;102413.66;6218090;28;20403;-79
2021/04/25 08:32:44;;;;;;;9.27;2.20;;;;;;;7.18;54.22;102418.03;6205245;28;20082;-78
2021/04/25 08:35:45;;;;;;;6.47;1.80;;;;;;;7.23;53.98;102421.44;6198145;28;20088;-78
2021/04/25 08:38:47;;;;;;;5.97;1.92;;;;;;;7.37;53.04;102422.13;6198497;28;20145;-79
2021/04/25 08:41:49;;;;;;;14.07;1.80;;;;;;;7.60;52.30;102415.72;6198662;28;20444;-81
2021/04/25 08:44:53;;;;;;;5.93;1.60;;;;;;;7.86;52.79;102415.34;6198934;28;20418;-79
2021/04/25 08:47:57;;;;;;;8.68;1.90;;;;;;;8.13;51.65;102412.28;6198409;28;20108;-78
2021/04/25 08:50:58;;;;;;;11.95;1.98;;;;;;;8.07;53.32;102424.59;6199802;28;20054;-79
2021/04/25 08:53:59;;;;;;;9.13;2.13;;;;;;;8.05;52.11;102423.78;6198386;28;20042;-78
2021/04/25 08:57:01;;;;;;;8.48;2.88;;;;;;;7.97;52.59;102426.50;6198633;28;20054;-78
2021/04/25 09:00:05;;;;;;;11.13;2.60;;;;;;;7.89;51.51;102421.38;6198610;28;20061;-81
2021/04/25 09:03:06;;;;;;;8.15;2.22;;;;;;;8.03;52.74;102415.06;6198158;28;20054;-78
2021/04/25 09:06:11;;;;;;;8.40;2.70;;;;;;;8.04;53.18;102417.69;6199091;28;20431;-78
2021/04/25 09:09:12;;;;;;;10.45;1.83;;;;;;;8.12;52.76;102421.00;6198542;28;20057;-78
2021/04/25 09:12:31;;;;;;;8.23;2.88;;;;;;;8.19;52.02;102415.69;6198865;28;20054;-79
2021/04/25 09:15:34;;;;;;;7.40;2.28;;;;;;;8.23;51.46;102418.25;6202076;28;20046;-80
2021/04/25 09:18:35;;;;;;;8.70;2.30;;;;;;;8.42;49.70;102423.19;6203575;28;20092;-82
2021/04/25 09:21:58;;;;;;;8.90;2.20;;;;;;;8.35;49.79;102415.38;6207941;28;20053;-80
2021/04/25 09:25:07;;;;;;;11.63;2.85;;;;;;;8.12;50.83;102417.53;6209045;28;20049;-79
2021/04/25 09:28:18;;;;;;;5.90;2.05;;;;;;;8.16;52.86;102426.22;6227030;28;20053;-79
2021/04/25 09:31:20;;;;;;;11.02;2.58;;;;;;;8.05;51.90;102424.63;6204862;28;20104;-80
2021/04/25 09:34:27;;;;;;;4.15;2.03;;;;;;;8.07;52.25;102421.97;6202571;28;20499;-79
2021/04/25 09:37:28;;;;;;;9.82;2.47;;;;;;;7.98;52.08;102416.88;6204700;28;20053;-79
2021/04/25 09:40:38;;;;;;;11.93;2.35;;;;;;;8.00;51.95;102421.22;6226832;28;20058;-77
2021/04/25 09:43:40;;;;;;;9.73;2.50;;;;;;;7.78;52.97;102411.97;6226853;28;20042;-80
2021/04/25 09:46:52;;;;;;;10.02;2.40;;;;;;;7.82;53.49;102408.44;6226409;28;20075;-81
2021/04/25 09:49:53;;;;;;;9.32;2.33;;;;;;;8.19;51.64;102407.84;6226221;28;20141;-81
2021/04/25 09:52:54;;;;;;;6.28;2.40;;;;;;;8.16;51.17;102410.50;6226661;28;20061;-82
2021/04/25 09:55:55;;;;;;;7.95;2.92;;;;;;;8.21;52.19;102411.28;6212372;28;20050;-79
2021/04/25 09:59:01;;;;;;;6.70;2.00;;;;;;;8.28;50.32;102405.94;6202372;28;20101;-80
2021/04/25 10:02:07;;;;;;;7.72;1.63;;;;;;;8.32;49.68;102411.97;6202410;28;20050;-80
2021/04/25 10:05:08;;;;;;;7.68;2.28;;;;;;;8.37;50.14;102408.41;6201845;28;20050;-80
2021/04/25 10:08:27;;;;;;;6.38;2.17;;;;;;;8.61;50.18;102409.72;6203522;28;20057;-86
2021/04/25 10:11:30;;;;;;;6.38;1.98;;;;;;;8.72;48.91;102411.28;6203869;28;20054;-81
2021/04/25 10:14:33;;;;;;;5.45;1.92;;;;;;;8.93;48.08;102397.75;6201919;28;20046;-82
2021/04/25 10:17:34;;;;;;;5.07;1.77;;;;;;;9.18;48.33;102405.16;6202152;28;20050;-78
2021/04/25 10:20:35;;;;;;;4.43;1.85;;;;;;;9.27;47.21;102402.34;6204122;28;20060;-79
2021/04/25 10:23:36;;;;;;;4.78;2.13;;;;;;;9.54;46.77;102401.72;6219774;28;20521;-79
2021/04/25 10:26:49;;;;;;;10.43;2.10;;;;;;;9.33;45.91;102399.56;6225889;28;20050;-78
2021/04/25 10:29:55;;;;;;;3.75;2.05;;;;;;;9.06;47.21;102401.88;6213990;28;20053;-80
2021/04/25 10:32:58;;;;;;;7.38;2.00;;;;;;;8.80;47.66;102404.13;6201847;28;20052;-79
2021/04/25 10:35:58;;;;;;;6.00;2.85;;;;;;;8.82;48.25;102397.13;6211978;28;20092;-80
2021/04/25 10:38:59;;;;;;;4.55;1.40;;;;;;;8.69;47.35;102391.25;6213709;28;20050;-80
2021/04/25 10:42:38;;;;;;;4.63;1.40;;;;;;;9.03;45.72;102394.06;6212333;28;20053;-81
2021/04/25 10:49:29;;;;;;;6.68;1.58;;;;;;;9.78;41.77;102392.41;6347356;27;670767;-79
2021/04/25 10:52:32;;;;;;;5.50;1.90;;;;;;;9.73;45.04;102389.03;6331028;28;20139;-82
2021/04/25 10:55:33;;;;;;;6.47;1.35;;;;;;;9.91;45.86;102398.25;6304405;28;20052;-80
2021/04/25 10:58:34;;;;;;;4.47;1.30;;;;;;;9.92;45.50;102392.09;6306651;28;20511;-80
2021/04/25 11:01:45;;;;;;;5.95;2.05;;;;;;;9.54;44.18;102388.59;6304828;28;20044;-80
2021/04/25 11:05:07;;;;;;;7.40;1.80;;;;;;;9.88;43.87;102386.03;6304641;28;20492;-79
2021/04/25 11:08:35;;;;;;;5.88;1.60;;;;;;;10.08;43.28;102382.03;6306394;28;20037;-81
2021/04/25 11:11:38;;;;;;;5.53;1.50;;;;;;;10.09;43.01;102382.03;6294520;28;20496;-80
2021/04/25 11:14:40;;;;;;;4.82;1.20;;;;;;;10.27;42.61;102379.88;6293694;28;20497;-80
2021/04/25 11:17:41;;;;;;;6.20;1.30;;;;;;;10.91;41.49;102383.38;6294473;28;20386;-80
2021/04/25 11:20:43;;;;;;;4.78;1.35;;;;;;;11.15;41.68;102379.19;6294378;28;20084;-80
2021/04/25 11:23:44;;;;;;;5.03;1.73;;;;;;;11.43;37.92;102379.19;6293852;28;20056;-82
2021/04/25 11:26:46;;;;;;;3.45;1.30;;;;;;;10.93;42.08;102384.19;6294200;28;20045;-79
2021/04/25 11:30:00;;;;;;;7.70;1.80;;;;;;;10.76;39.43;102382.03;6294068;28;20092;-80
2021/04/25 11:33:29;;;;;;;2.08;1.40;;;;;;;10.54;41.25;102387.03;6294179;28;20088;-81
2021/04/25 11:36:38;;;;;;;4.38;1.33;;;;;;;11.10;38.42;102378.44;6293450;28;20052;-82
2021/04/25 11:39:41;;;;;;;8.45;1.67;;;;;;;11.53;40.20;102374.50;6293478;28;20049;-80
2021/04/25 11:42:47;;;;;;;10.88;1.52;;;;;;;12.25;38.66;102372.19;6293667;28;20056;-80
2021/04/25 11:45:48;;;;;;;2.97;1.17;;;;;;;12.75;36.76;102361.63;6293279;28;20075;-81
2021/04/25 11:48:55;;;;;;;3.78;1.25;;;;;;;12.29;36.06;102374.66;6294046;28;20052;-81
2021/04/25 11:52:07;;;;;;;46.90;3.60;;;;;;;12.06;35.72;102374.59;6293084;28;20058;-80
2021/04/25 11:55:10;;;;;;;4.05;1.63;;;;;;;12.40;35.69;102362.00;6293033;28;20279;-81
2021/04/25 11:58:17;;;;;;;276.35;11.65;;;;;;;13.05;36.30;102370.19;6289225;28;20072;-80
2021/04/25 12:01:22;;;;;;;4.38;1.17;;;;;;;12.02;35.58;102381.72;6276382;28;20053;-79
2021/04/25 12:04:42;;;;;;;4.40;1.58;;;;;;;11.26;38.58;102365.69;6276018;28;20049;-80
2021/04/25 12:07:46;;;;;;;3.15;1.63;;;;;;;10.81;37.53;102374.91;6276305;28;20049;-81
2021/04/25 12:10:50;;;;;;;6.10;1.50;;;;;;;10.77;40.51;102368.00;6276063;28;20041;-80
2021/04/25 12:13:51;;;;;;;2.97;1.38;;;;;;;11.12;38.16;102361.69;6275472;28;20052;-81
2021/04/25 12:17:09;;;;;;;2.70;1.10;;;;;;;12.08;37.62;102362.22;6283540;28;20045;-79
2021/04/25 12:20:11;;;;;;;3.30;1.50;;;;;;;12.38;33.51;102352.41;6287788;28;20056;-80
2021/04/25 12:23:16;;;;;;;3.25;1.30;;;;;;;12.84;33.14;102343.69;6285321;28;20048;-80
2021/04/25 12:26:18;;;;;;;5.65;1.10;;;;;;;13.38;33.42;102345.16;6285557;28;20070;-80
2021/04/25 12:29:33;;;;;;;1.95;1.02;;;;;;;13.49;32.53;102352.69;6288334;28;20174;-80
2021/04/25 12:32:34;;;;;;;4.78;1.52;;;;;;;12.86;35.05;102346.28;6291087;28;20520;-80
2021/04/25 12:35:39;;;;;;;7.70;1.60;;;;;;;13.47;32.57;102351.00;6288613;28;20109;-80
2021/04/25 12:38:43;;;;;;;2.22;1.20;;;;;;;13.51;31.60;102344.69;6287443;28;20141;-80
2021/04/25 12:41:46;;;;;;;2.80;1.45;;;;;;;13.18;31.58;102335.34;6286348;28;20079;-81
2021/04/25 12:44:47;;;;;;;5.13;1.30;;;;;;;13.79;32.30;102339.13;6286091;28;20037;-79
2021/04/25 12:47:48;;;;;;;6.88;1.80;;;;;;;13.57;30.98;102341.78;6284817;28;20040;-80
2021/04/25 12:51:23;;;;;;;1.50;0.93;;;;;;;13.52;33.08;102328.75;6286225;28;20413;-80
2021/04/25 12:54:27;;;;;;;5.05;1.80;;;;;;;13.67;31.46;102330.81;6286736;28;20049;-82
2021/04/25 12:57:29;;;;;;;3.53;0.98;;;;;;;13.39;35.75;102341.59;6284649;28;20489;-80
2021/04/25 13:00:30;;;;;;;4.03;1.13;;;;;;;13.60;32.51;102333.75;6284724;28;20048;-81
2021/04/25 13:03:32;;;;;;;5.35;1.33;;;;;;;13.27;32.04;102339.44;6286222;28;20045;-79
2021/04/25 13:06:33;;;;;;;2.85;1.13;;;;;;;13.78;30.14;102335.63;6284322;28;20052;-80
2021/04/25 13:09:34;;;;;;;2.80;0.90;;;;;;;13.69;30.96;102328.09;6286263;28;20086;-80
2021/04/25 13:12:37;;;;;;;3.95;1.10;;;;;;;14.35;31.71;102334.09;6279181;28;20095;-79
2021/04/25 13:15:39;;;;;;;5.72;1.45;;;;;;;14.40;30.76;102331.25;6273906;28;20053;-79
2021/04/25 13:18:40;;;;;;;5.20;1.20;;;;;;;13.39;30.67;102331.03;6274413;28;20055;-79
2021/04/25 13:21:42;;;;;;;2.72;1.10;;;;;;;12.72;33.05;102332.72;6274788;28;20048;-79
2021/04/25 13:24:44;;;;;;;4.70;1.20;;;;;;;12.43;32.97;102337.28;6274274;28;20425;-79
2021/04/25 13:27:45;;;;;;;3.88;1.13;;;;;;;13.09;32.30;102311.97;6274284;28;20049;-79
2021/04/25 13:30:49;;;;;;;1.73;1.10;;;;;;;13.89;32.27;102327.25;6278825;28;21569;-80
2021/04/25 13:33:49;;;;;;;2.78;1.10;;;;;;;14.34;28.81;102323.56;6278391;28;20048;-79
2021/04/25 13:36:50;;;;;;;4.97;1.10;;;;;;;14.01;30.12;102317.94;6274325;28;20045;-78
2021/04/25 13:39:52;;;;;;;4.82;1.25;;;;;;;14.01;29.91;102320.59;6273760;28;20703;-80
2021/04/25 13:42:53;;;;;;;4.22;1.13;;;;;;;13.93;32.34;102310.34;6274551;28;20049;-80
2021/04/25 13:45:54;;;;;;;2.92;1.10;;;;;;;14.43;30.66;102309.94;6296085;28;20508;-79
2021/04/25 13:48:55;;;;;;;4.78;0.98;;;;;;;14.86;28.19;102293.00;6298789;28;20049;-79
2021/04/25 13:51:56;;;;;;;4.68;1.20;;;;;;;14.41;27.65;102295.94;6299311;28;20062;-80
2021/04/25 13:54:58;;;;;;;4.53;1.33;;;;;;;14.47;28.48;102300.94;6285139;28;20040;-79
2021/04/25 13:57:59;;;;;;;3.38;1.30;;;;;;;14.76;30.00;102289.06;6290568;28;20071;-78
2021/04/25 14:01:00;;;;;;;4.25;1.23;;;;;;;14.62;27.07;102294.97;6289518;28;20044;-79
2021/04/25 14:04:01;;;;;;;4.68;1.20;;;;;;;15.01;27.46;102291.41;6278932;28;20048;-79
2021/04/25 14:07:02;;;;;;;3.53;1.20;;;;;;;14.55;29.05;102287.41;6286729;28;20055;-79
2021/04/25 14:10:05;;;;;;;14.13;1.38;;;;;;;14.74;27.71;102288.28;6275647;28;20049;-79
2021/04/25 14:13:06;;;;;;;4.53;1.17;;;;;;;14.43;28.74;102280.84;6288637;28;20049;-80
2021/04/25 14:16:07;;;;;;;1.83;1.10;;;;;;;14.47;28.73;102280.63;6273509;28;20073;-78